createdAt,value
2018-07-26T00:01:00.001Z,61.06
2018-07-26T00:03:57.340Z,61.32
2018-07-26T00:06:55.338Z,60.83
2018-07-26T00:09:53.215Z,61.23
2018-07-26T00:12:50.988Z,61.35
2018-07-26T00:15:48.046Z,62.43
2018-07-26T00:18:45.239Z,62.28
2018-07-26T00:21:43.206Z,63.40
2018-07-26T00:24:40.631Z,63.91
2018-07-26T00:27:37.863Z,64.88
2018-07-26T00:30:35.802Z,63.95
2018-07-26T00:33:33.823Z,63.62
2018-07-26T00:36:31.624Z,63.03
2018-07-26T00:39:30.702Z,63.24
2018-07-26T00:42:28.157Z,63.31
2018-07-26T00:45:25.432Z,63.68
2018-07-26T00:48:23.469Z,64.69
2018-07-26T00:51:21.164Z,65.02
2018-07-26T00:54:18.543Z,64.22
2018-07-26T00:57:15.617Z,63.59
2018-07-26T01:00:13.057Z,63.16
2018-07-26T01:03:10.723Z,63.09
2018-07-26T01:06:08.164Z,62.15
2018-07-26T01:09:06.151Z,62.16
2018-07-26T01:12:04.217Z,62.23
2018-07-26T01:15:01.351Z,62.13
2018-07-26T01:17:58.628Z,62.17
2018-07-26T01:20:55.807Z,62.44
2018-07-26T01:23:54.102Z,63.59
2018-07-26T01:26:51.230Z,63.75
2018-07-26T01:29:48.622Z,64.20
2018-07-26T01:32:46.239Z,65.46
2018-07-26T01:35:43.692Z,65.71
2018-07-26T01:38:41.735Z,64.68
2018-07-26T01:41:39.751Z,65.64
2018-07-26T01:44:41.114Z,66.23
2018-07-26T01:47:39.118Z,65.98
2018-07-26T01:50:36.754Z,66.85
2018-07-26T01:53:34.134Z,67.55
2018-07-26T01:56:31.363Z,67.59
2018-07-26T01:59:28.507Z,66.88
2018-07-26T02:02:25.556Z,66.68
2018-07-26T02:05:22.770Z,66.14
2018-07-26T02:08:19.783Z,66.45
2018-07-26T02:11:16.998Z,65.56
2018-07-26T02:14:18.540Z,65.31
2018-07-26T02:17:16.331Z,64.98
2018-07-26T02:20:13.984Z,66.01
2018-07-26T02:23:11.863Z,66.50
2018-07-26T02:26:09.700Z,66.96
2018-07-26T02:29:07.811Z,67.42
2018-07-26T02:32:05.367Z,67.79
2018-07-26T02:35:03.348Z,68.92
2018-07-26T02:38:01.058Z,69.85
2018-07-26T02:40:58.360Z,69.22
2018-07-26T02:43:55.917Z,69.51
2018-07-26T02:46:53.080Z,69.31
2018-07-26T02:49:51.030Z,70.31
2018-07-26T02:52:48.604Z,70.39
2018-07-26T02:58:35.234Z,69.98
2018-07-26T03:01:33.120Z,69.98
2018-07-26T03:04:30.876Z,70.04
2018-07-26T03:07:28.727Z,70.12
2018-07-26T03:10:26.027Z,70.58
2018-07-26T03:13:23.567Z,71.49
2018-07-26T03:16:20.743Z,71.36
2018-07-26T03:19:18.055Z,72.25
2018-07-26T03:22:15.368Z,72.19
2018-07-26T03:25:12.720Z,72.96
2018-07-26T03:28:10.476Z,73.58
2018-07-26T03:31:07.666Z,73.04
2018-07-26T03:34:05.303Z,73.16
2018-07-26T03:37:03.260Z,72.62
2018-07-26T03:40:00.935Z,70.90
2018-07-26T03:42:58.629Z,72.17
2018-07-26T03:45:56.779Z,72.63
2018-07-26T03:48:53.860Z,73.07
2018-07-26T03:51:51.298Z,72.90
2018-07-26T03:54:48.493Z,71.86
2018-07-26T03:57:46.559Z,71.35
2018-07-26T04:00:44.412Z,70.44
2018-07-26T04:03:42.347Z,68.89
2018-07-26T04:06:40.415Z,66.85
2018-07-26T04:09:38.216Z,67.03
2018-07-26T04:12:35.399Z,65.69
2018-07-26T04:15:32.459Z,64.49
2018-07-26T04:18:29.912Z,63.66
2018-07-26T04:21:27.975Z,64.32
2018-07-26T04:24:26.088Z,63.84
2018-07-26T04:27:24.244Z,63.14
2018-07-26T04:30:21.447Z,61.58
2018-07-26T04:33:19.059Z,61.71
2018-07-26T04:36:16.306Z,62.44
2018-07-26T04:39:13.179Z,61.76
2018-07-26T04:42:11.168Z,58.05
2018-07-26T04:45:08.514Z,57.02
2018-07-26T04:48:06.611Z,56.04
2018-07-26T04:51:03.945Z,55.13
2018-07-26T04:54:01.216Z,54.76
2018-07-26T04:56:59.139Z,53.05
2018-07-26T04:59:56.651Z,51.17
2018-07-26T05:02:54.412Z,52.20
2018-07-26T05:05:52.384Z,51.16
2018-07-26T05:08:50.043Z,48.84
2018-07-26T05:11:47.893Z,50.69
2018-07-26T05:14:45.115Z,49.42
2018-07-26T05:17:42.204Z,47.61
2018-07-26T05:20:39.486Z,47.45
2018-07-26T05:23:37.392Z,45.84
2018-07-26T05:26:34.855Z,44.82
2018-07-26T05:29:32.403Z,42.99
2018-07-26T05:32:30.392Z,42.99
2018-07-26T05:35:27.488Z,42.15
2018-07-26T05:38:24.700Z,41.04
2018-07-26T05:41:21.804Z,41.22
2018-07-26T05:44:19.095Z,40.02
2018-07-26T05:47:16.564Z,38.99
2018-07-26T05:50:15.529Z,38.58
2018-07-26T05:53:13.723Z,39.04
2018-07-26T05:56:11.683Z,39.02
2018-07-26T05:59:09.348Z,40.54
2018-07-26T06:02:06.543Z,43.37
2018-07-26T06:05:04.258Z,45.27
2018-07-26T06:08:01.593Z,45.91
2018-07-26T06:10:58.730Z,45.59
2018-07-26T06:13:55.660Z,45.57
2018-07-26T06:16:53.508Z,44.06
2018-07-26T06:19:50.905Z,41.76
2018-07-26T06:22:48.183Z,39.25
2018-07-26T06:25:45.406Z,38.14
2018-07-26T06:28:42.963Z,38.86
2018-07-26T06:31:40.848Z,38.14
2018-07-26T06:34:38.796Z,40.21
2018-07-26T06:37:36.279Z,40.89
2018-07-26T06:40:36.066Z,41.77
2018-07-26T06:43:36.100Z,42.54
2018-07-26T06:46:33.208Z,41.38
2018-07-26T06:49:30.749Z,40.23
2018-07-26T06:52:28.378Z,39.37
2018-07-26T06:55:26.302Z,37.40
2018-07-26T06:58:23.431Z,36.43
2018-07-26T07:01:21.512Z,35.88
2018-07-26T07:04:19.393Z,35.53
2018-07-26T07:07:17.349Z,34.34
2018-07-26T07:10:15.362Z,34.77
2018-07-26T07:13:12.659Z,33.08
2018-07-26T07:16:09.728Z,33.12
2018-07-26T07:19:07.291Z,32.13
2018-07-26T07:22:04.556Z,31.53
2018-07-26T07:25:02.504Z,32.82
2018-07-26T07:27:59.524Z,32.51
2018-07-26T07:30:57.337Z,33.89
2018-07-26T07:33:54.408Z,34.13
2018-07-26T07:36:52.040Z,33.30
2018-07-26T07:39:50.075Z,31.99
2018-07-26T07:42:48.097Z,31.27
2018-07-26T07:45:45.735Z,30.71
2018-07-26T07:48:42.732Z,31.42
2018-07-26T07:51:40.207Z,30.81
2018-07-26T07:54:37.320Z,31.46
2018-07-26T07:57:34.507Z,29.55
2018-07-26T08:00:32.768Z,29.02
2018-07-26T08:03:29.899Z,28.76
2018-07-26T08:06:28.035Z,29.93
2018-07-26T08:09:25.160Z,28.79
2018-07-26T08:12:22.439Z,29.43
2018-07-26T08:15:20.649Z,28.15
2018-07-26T08:18:17.710Z,27.72
2018-07-26T08:21:15.837Z,27.64
2018-07-26T08:24:13.643Z,26.79
2018-07-26T08:27:11.108Z,27.14
2018-07-26T08:30:08.267Z,26.81
2018-07-26T08:33:05.324Z,27.18
2018-07-26T08:36:02.641Z,27.10
2018-07-26T08:39:00.180Z,27.31
2018-07-26T08:41:58.165Z,26.49
2018-07-26T08:44:55.168Z,27.05
2018-07-26T08:47:52.420Z,26.77
2018-07-26T08:50:49.461Z,26.54
2018-07-26T08:53:47.339Z,26.76
2018-07-26T08:56:44.662Z,26.47
2018-07-26T08:59:42.049Z,27.23
2018-07-26T09:02:40.063Z,24.72
2018-07-26T09:05:37.261Z,25.07
2018-07-26T09:08:34.920Z,25.12
2018-07-26T09:11:32.162Z,24.92
2018-07-26T09:14:29.337Z,24.39
2018-07-26T09:17:26.431Z,25.88
2018-07-26T09:20:23.682Z,26.41
2018-07-26T09:23:21.167Z,25.92
2018-07-26T09:26:18.293Z,26.03
2018-07-26T09:29:15.416Z,26.53
2018-07-26T09:32:12.590Z,26.46
2018-07-26T09:35:10.381Z,26.53
2018-07-26T09:38:07.533Z,26.39
2018-07-26T09:41:04.582Z,26.66
2018-07-26T09:44:01.630Z,26.00
2018-07-26T09:46:58.944Z,25.83
2018-07-26T09:49:56.078Z,26.96
2018-07-26T09:52:53.523Z,27.23
2018-07-26T09:55:50.872Z,26.55
2018-07-26T09:58:48.635Z,25.24
2018-07-26T10:01:46.644Z,25.49
2018-07-26T10:04:44.733Z,25.18
2018-07-26T10:07:42.014Z,25.80
2018-07-26T10:10:39.064Z,26.35
2018-07-26T10:13:36.446Z,26.93
2018-07-26T10:16:33.675Z,24.89
2018-07-26T10:19:30.918Z,25.26
2018-07-26T10:22:28.696Z,26.86
2018-07-26T10:25:26.760Z,26.67
2018-07-26T10:28:24.096Z,26.35
2018-07-26T10:31:21.184Z,26.11
2018-07-26T10:34:18.428Z,26.06
2018-07-26T10:37:15.612Z,25.72
2018-07-26T10:40:12.749Z,26.86
2018-07-26T10:43:10.023Z,27.10
2018-07-26T10:46:07.184Z,26.61
2018-07-26T10:49:04.376Z,27.33
2018-07-26T10:52:01.490Z,25.80
2018-07-26T10:54:59.453Z,25.23
2018-07-26T10:57:57.560Z,24.85
2018-07-26T11:00:54.727Z,25.93
2018-07-26T11:03:51.883Z,26.51
2018-07-26T11:06:49.992Z,25.87
2018-07-26T11:09:47.391Z,26.54
2018-07-26T11:12:45.401Z,25.92
2018-07-26T11:15:45.676Z,25.57
2018-07-26T11:18:42.953Z,25.40
2018-07-26T11:21:40.503Z,25.78
2018-07-26T11:24:37.893Z,25.44
2018-07-26T11:27:35.424Z,25.93
2018-07-26T11:30:33.174Z,25.20
2018-07-26T11:33:30.651Z,24.92
2018-07-26T11:36:28.040Z,25.09
2018-07-26T11:39:25.353Z,26.80
2018-07-26T11:42:23.325Z,27.11
2018-07-26T11:45:20.462Z,26.97
2018-07-26T11:48:17.644Z,26.57
2018-07-26T11:51:14.908Z,27.87
2018-07-26T11:54:12.191Z,27.73
2018-07-26T11:57:09.292Z,27.52
2018-07-26T12:00:06.937Z,26.99
2018-07-26T12:03:04.459Z,26.97
2018-07-26T12:06:01.718Z,27.56
2018-07-26T12:08:59.080Z,26.89
2018-07-26T12:11:56.616Z,26.39
2018-07-26T12:14:54.350Z,27.92
2018-07-26T12:17:51.458Z,26.84
2018-07-26T12:20:48.633Z,27.09
2018-07-26T12:23:45.850Z,26.29
2018-07-26T12:26:42.967Z,25.84
2018-07-26T12:29:40.809Z,25.79
2018-07-26T12:32:37.939Z,25.47
2018-07-26T12:35:35.960Z,24.75
2018-07-26T12:38:33.039Z,26.41
2018-07-26T12:41:30.513Z,26.91
2018-07-26T12:44:28.331Z,26.78
2018-07-26T12:47:26.323Z,27.25
2018-07-26T12:50:24.142Z,27.01
2018-07-26T12:53:22.323Z,26.08
2018-07-26T12:56:20.356Z,25.87
2018-07-26T12:59:18.517Z,27.23
2018-07-26T13:02:15.845Z,27.14
2018-07-26T13:05:13.027Z,26.25
2018-07-26T13:08:10.897Z,26.31
2018-07-26T13:11:09.051Z,27.14
2018-07-26T13:14:06.684Z,27.50
2018-07-26T13:17:03.996Z,27.56
2018-07-26T13:20:01.172Z,26.57
2018-07-26T13:22:58.352Z,26.83
2018-07-26T13:25:55.650Z,26.87
2018-07-26T13:28:53.743Z,26.57
2018-07-26T13:31:51.203Z,27.40
2018-07-26T13:34:48.893Z,26.66
2018-07-26T13:37:46.415Z,27.22
2018-07-26T13:40:43.665Z,26.89
2018-07-26T13:43:40.997Z,26.21
2018-07-26T13:46:39.112Z,26.88
2018-07-26T13:49:36.393Z,26.73
2018-07-26T13:52:42.451Z,26.58
2018-07-26T13:55:39.787Z,27.79
2018-07-26T13:58:36.932Z,27.21
2018-07-26T14:01:34.131Z,27.52
2018-07-26T14:04:31.396Z,27.83
2018-07-26T14:07:28.619Z,27.37
2018-07-26T14:10:25.560Z,27.62
2018-07-26T14:13:23.735Z,27.75
2018-07-26T14:16:20.869Z,27.21
2018-07-26T14:19:18.071Z,28.14
2018-07-26T14:22:16.213Z,27.88
2018-07-26T14:25:13.900Z,26.94
2018-07-26T14:28:10.993Z,27.25
2018-07-26T14:31:08.171Z,26.79
2018-07-26T14:34:05.279Z,26.99
2018-07-26T14:37:02.696Z,28.03
2018-07-26T14:40:00.722Z,26.60
2018-07-26T14:42:58.291Z,28.43
2018-07-26T14:45:55.647Z,26.98
2018-07-26T14:48:52.936Z,28.22
2018-07-26T14:51:50.226Z,28.32
2018-07-26T14:54:48.159Z,27.79
2018-07-26T14:57:45.591Z,28.32
2018-07-26T15:00:43.672Z,27.89
2018-07-26T15:03:40.691Z,27.92
2018-07-26T15:06:38.023Z,28.00
2018-07-26T15:09:35.864Z,27.83
2018-07-26T15:12:32.976Z,28.32
2018-07-26T15:15:30.053Z,27.79
2018-07-26T15:18:27.306Z,28.43
2018-07-26T15:21:24.570Z,27.88
2018-07-26T15:24:21.825Z,27.73
2018-07-26T15:27:19.856Z,28.37
2018-07-26T15:30:17.042Z,27.41
2018-07-26T15:33:14.229Z,27.53
2018-07-26T15:36:11.756Z,28.33
2018-07-26T15:39:09.065Z,27.86
2018-07-26T15:42:06.815Z,27.55
2018-07-26T15:45:03.848Z,26.85
2018-07-26T15:48:01.001Z,26.39
2018-07-26T15:50:58.281Z,26.88
2018-07-26T15:53:56.031Z,27.67
2018-07-26T15:56:53.897Z,27.93
2018-07-26T15:59:51.114Z,27.55
2018-07-26T16:02:48.836Z,27.45
2018-07-26T16:05:46.067Z,28.12
2018-07-26T16:08:43.204Z,27.88
2018-07-26T16:11:41.115Z,27.49
2018-07-26T16:14:39.127Z,27.52
2018-07-26T16:17:36.941Z,27.94
2018-07-26T16:20:34.052Z,27.41
2018-07-26T16:23:31.322Z,27.97
2018-07-26T16:26:29.567Z,28.29
2018-07-26T16:29:27.676Z,27.86
2018-07-26T16:32:25.826Z,27.48
2018-07-26T16:35:23.076Z,27.88
2018-07-26T16:38:20.226Z,27.52
2018-07-26T16:41:17.472Z,27.92
2018-07-26T16:44:15.443Z,27.70
2018-07-26T16:47:12.949Z,27.73
2018-07-26T16:50:10.386Z,27.58
2018-07-26T16:53:08.487Z,27.82
2018-07-26T16:56:06.045Z,28.22
2018-07-26T16:59:03.935Z,27.72
2018-07-26T17:02:01.417Z,27.42
2018-07-26T17:04:58.603Z,27.90
2018-07-26T17:07:58.655Z,27.92
2018-07-26T17:10:56.491Z,27.71
2018-07-26T17:13:54.012Z,27.77
2018-07-26T17:16:52.144Z,28.13
2018-07-26T17:19:49.310Z,28.21
2018-07-26T17:22:46.905Z,29.05
2018-07-26T17:25:44.671Z,28.03
2018-07-26T17:28:41.950Z,27.99
2018-07-26T17:31:39.147Z,28.61
2018-07-26T17:34:36.956Z,28.97
2018-07-26T17:37:34.660Z,29.06
2018-07-26T17:40:32.570Z,29.34
2018-07-26T17:43:29.595Z,29.37
2018-07-26T17:46:27.098Z,29.33
2018-07-26T17:49:24.250Z,29.83
2018-07-26T17:52:22.125Z,29.23
2018-07-26T17:55:20.395Z,29.36
2018-07-26T17:58:18.351Z,29.98
2018-07-26T18:01:15.436Z,30.07
2018-07-26T18:04:12.915Z,29.81
2018-07-26T18:07:10.642Z,29.50
2018-07-26T18:10:07.900Z,29.02
2018-07-26T18:13:05.582Z,29.73
2018-07-26T18:16:03.364Z,29.48
2018-07-26T18:19:00.912Z,29.70
2018-07-26T18:21:58.504Z,29.04
2018-07-26T18:24:55.940Z,29.50
2018-07-26T18:27:53.529Z,29.52
2018-07-26T18:30:51.166Z,29.98
2018-07-26T18:33:48.728Z,30.77
2018-07-26T18:36:46.005Z,31.13
2018-07-26T18:39:43.965Z,30.76
2018-07-26T18:42:41.307Z,30.83
2018-07-26T18:45:38.792Z,31.57
2018-07-26T18:48:36.764Z,31.38
2018-07-26T18:51:34.679Z,30.13
2018-07-26T18:54:32.615Z,31.37
2018-07-26T18:57:30.697Z,32.14
2018-07-26T19:00:29.291Z,31.07
2018-07-26T19:03:27.228Z,31.38
2018-07-26T19:06:24.717Z,31.11
2018-07-26T19:09:23.005Z,31.55
2018-07-26T19:12:20.655Z,32.24
2018-07-26T19:15:19.060Z,32.01
2018-07-26T19:18:16.827Z,33.28
2018-07-26T19:21:14.688Z,33.26
2018-07-26T19:24:12.082Z,32.59
2018-07-26T19:27:09.251Z,33.04
2018-07-26T19:30:07.007Z,32.48
2018-07-26T19:33:04.336Z,33.42
2018-07-26T19:36:02.152Z,33.61
2018-07-26T19:38:59.146Z,34.66
2018-07-26T19:41:56.909Z,34.21
2018-07-26T19:44:54.904Z,34.14
2018-07-26T19:47:51.948Z,36.86
2018-07-26T19:50:49.113Z,37.21
2018-07-26T19:53:46.406Z,36.44
2018-07-26T19:56:44.541Z,36.47
2018-07-26T19:59:42.552Z,36.92
2018-07-26T20:02:40.432Z,39.21
2018-07-26T20:05:37.847Z,38.82
2018-07-26T20:08:35.817Z,40.02
2018-07-26T20:11:33.870Z,41.02
2018-07-26T20:14:30.866Z,40.94
2018-07-26T20:17:27.787Z,41.20
2018-07-26T20:20:25.449Z,42.10
2018-07-26T20:23:23.042Z,42.03
2018-07-26T20:26:20.370Z,42.79
2018-07-26T20:29:17.858Z,42.72
2018-07-26T20:32:15.380Z,42.40
2018-07-26T20:35:13.087Z,43.46
2018-07-26T20:38:10.615Z,43.76
2018-07-26T20:41:08.199Z,43.77
2018-07-26T20:44:06.194Z,44.40
2018-07-26T20:47:03.779Z,44.78
2018-07-26T20:50:01.304Z,45.89
2018-07-26T20:52:59.038Z,45.29
2018-07-26T20:55:56.808Z,45.41
2018-07-26T20:58:54.413Z,44.81
2018-07-26T21:01:52.594Z,46.02
2018-07-26T21:04:50.755Z,46.96
2018-07-26T21:07:47.912Z,46.14
2018-07-26T21:10:45.860Z,47.88
2018-07-26T21:13:43.871Z,46.95
2018-07-26T21:16:40.816Z,47.63
2018-07-26T21:19:38.688Z,47.25
2018-07-26T21:22:36.706Z,47.22
2018-07-26T21:25:34.304Z,48.05
2018-07-26T21:28:32.315Z,48.42
2018-07-26T21:31:29.475Z,49.05
2018-07-26T21:34:27.422Z,48.77
2018-07-26T21:37:24.500Z,48.68
2018-07-26T21:40:22.268Z,48.74
2018-07-26T21:43:20.081Z,48.70
2018-07-26T21:46:17.219Z,49.02
2018-07-26T21:49:14.406Z,49.46
2018-07-26T21:52:11.743Z,48.84
2018-07-26T21:55:09.283Z,49.78
2018-07-26T21:58:07.167Z,50.44
2018-07-26T22:01:05.872Z,50.38
2018-07-26T22:04:03.463Z,50.45
2018-07-26T22:07:00.553Z,50.98
2018-07-26T22:09:57.720Z,51.11
2018-07-26T22:12:55.496Z,52.04
2018-07-26T22:15:53.434Z,51.64
2018-07-26T22:18:51.429Z,51.81
2018-07-26T22:21:48.531Z,51.95
2018-07-26T22:24:46.618Z,53.41
2018-07-26T22:27:44.588Z,53.96
2018-07-26T22:30:41.486Z,53.84
2018-07-26T22:33:39.450Z,52.22
2018-07-26T22:36:36.496Z,52.85
2018-07-26T22:39:34.435Z,52.17
2018-07-26T22:42:31.431Z,53.10
2018-07-26T22:45:29.332Z,53.12
2018-07-26T22:48:27.213Z,53.30
2018-07-26T22:51:24.960Z,54.00
2018-07-26T22:54:22.294Z,52.31
2018-07-26T22:57:19.367Z,52.82
2018-07-26T23:00:16.904Z,52.74
2018-07-26T23:03:14.567Z,52.74
2018-07-26T23:06:11.803Z,54.36
2018-07-26T23:09:08.817Z,54.11
2018-07-26T23:12:06.379Z,54.72
2018-07-26T23:15:03.920Z,54.76
2018-07-26T23:18:01.257Z,54.90
2018-07-26T23:20:58.734Z,55.22
2018-07-26T23:23:56.411Z,56.11
2018-07-26T23:26:53.320Z,56.23
2018-07-26T23:29:51.238Z,56.73
2018-07-26T23:32:48.474Z,55.69
2018-07-26T23:35:46.555Z,55.87
2018-07-26T23:38:43.771Z,56.09
2018-07-26T23:41:41.819Z,56.37
2018-07-26T23:44:39.687Z,56.23
2018-07-26T23:47:36.934Z,56.28
2018-07-26T23:50:35.020Z,55.71
2018-07-26T23:53:32.164Z,56.77
2018-07-26T23:56:30.288Z,57.58
2018-07-26T23:59:27.891Z,56.93
